createdAt,value
2023-05-21T00:00:25.709Z,26.36
2023-05-21T00:03:31.110Z,26.48
2023-05-21T00:06:37.905Z,26.99
2023-05-21T00:09:41.632Z,27.67
2023-05-21T00:12:45.151Z,27.95
2023-05-21T00:15:48.732Z,27.74
2023-05-21T00:18:52.293Z,28.47
2023-05-21T00:21:56.802Z,27.82
2023-05-21T00:25:00.884Z,27.03
2023-05-21T00:28:04.540Z,27.51
2023-05-21T00:31:08.204Z,28.95
2023-05-21T00:34:11.885Z,29.33
2023-05-21T00:37:16.043Z,28.56
2023-05-21T00:40:20.386Z,27.65
2023-05-21T00:43:27.043Z,25.82
2023-05-21T00:46:31.170Z,23.47
2023-05-21T00:49:34.852Z,22.01
2023-05-21T00:52:42.686Z,21.23
2023-05-21T00:55:47.678Z,20.48
2023-05-21T00:59:00.477Z,19.69
2023-05-21T01:02:06.246Z,19.20
2023-05-21T01:05:10.745Z,18.90
2023-05-21T01:08:15.824Z,19.15
2023-05-21T01:11:20.731Z,18.93
2023-05-21T01:14:25.811Z,18.91
2023-05-21T01:17:32.521Z,19.07
2023-05-21T01:20:36.175Z,19.11
2023-05-21T01:23:39.876Z,19.22
2023-05-21T01:26:45.091Z,18.86
2023-05-21T01:29:48.811Z,18.59
2023-05-21T01:33:13.802Z,18.21
2023-05-21T01:36:27.656Z,18.27
2023-05-21T01:39:40.364Z,18.46
2023-05-21T01:42:46.739Z,18.38
2023-05-21T01:45:55.616Z,18.51
2023-05-21T01:48:59.597Z,18.67
2023-05-21T01:52:03.488Z,18.97
2023-05-21T01:55:08.350Z,19.00
2023-05-21T01:58:12.441Z,19.17
2023-05-21T02:01:15.988Z,19.21
2023-05-21T02:04:19.748Z,19.14
2023-05-21T02:07:23.881Z,18.77
2023-05-21T02:10:27.599Z,18.53
2023-05-21T02:13:31.166Z,18.46
2023-05-21T02:16:37.100Z,18.52
2023-05-21T02:19:40.624Z,18.39
2023-05-21T02:22:46.240Z,18.18
2023-05-21T02:25:49.761Z,18.24
2023-05-21T02:28:53.625Z,18.28
2023-05-21T02:31:57.169Z,18.42
2023-05-21T02:35:00.820Z,18.44
2023-05-21T02:38:04.268Z,18.60
2023-05-21T02:41:08.232Z,18.59
2023-05-21T02:44:11.805Z,18.60
2023-05-21T02:47:15.356Z,18.66
2023-05-21T02:50:18.942Z,18.60
2023-05-21T02:53:29.360Z,18.62
2023-05-21T02:56:32.741Z,18.73
2023-05-21T02:59:36.242Z,18.91
2023-05-21T03:02:39.776Z,18.87
2023-05-21T03:05:43.342Z,18.93
2023-05-21T03:08:46.858Z,18.73
2023-05-21T03:11:51.970Z,18.84
2023-05-21T03:14:57.160Z,18.96
2023-05-21T03:18:01.362Z,19.06
2023-05-21T03:21:05.237Z,18.86
2023-05-21T03:24:08.793Z,18.89
2023-05-21T03:27:12.319Z,19.01
2023-05-21T03:30:16.440Z,19.14
2023-05-21T03:33:36.555Z,19.24
2023-05-21T03:36:52.508Z,19.17
2023-05-21T03:39:57.645Z,19.24
2023-05-21T03:43:02.029Z,19.32
2023-05-21T03:46:06.066Z,19.35
2023-05-21T03:49:16.448Z,19.51
2023-05-21T03:52:20.991Z,19.27
2023-05-21T03:55:26.429Z,19.14
2023-05-21T03:58:30.596Z,19.06
2023-05-21T04:01:35.773Z,19.14
2023-05-21T04:04:39.699Z,19.41
2023-05-21T04:07:44.935Z,19.52
2023-05-21T04:10:48.604Z,19.62
2023-05-21T04:13:52.649Z,19.69
2023-05-21T04:16:58.874Z,19.61
2023-05-21T04:20:05.506Z,19.38
2023-05-21T04:23:10.149Z,19.31
2023-05-21T04:26:15.459Z,19.24
2023-05-21T04:29:24.903Z,19.32
2023-05-21T04:32:29.867Z,19.45
2023-05-21T04:35:33.718Z,19.41
2023-05-21T04:38:38.369Z,19.32
2023-05-21T04:41:48.657Z,19.42
2023-05-21T04:44:56.552Z,19.66
2023-05-21T04:48:01.430Z,19.80
2023-05-21T04:51:09.283Z,19.91
2023-05-21T04:54:13.300Z,19.96
2023-05-21T04:57:19.400Z,19.97
2023-05-21T05:00:23.541Z,20.11
2023-05-21T05:03:30.355Z,20.03
2023-05-21T05:06:36.103Z,20.10
2023-05-21T05:09:39.734Z,20.16
2023-05-21T05:12:43.366Z,20.16
2023-05-21T05:15:49.656Z,20.28
2023-05-21T05:18:54.806Z,20.34
2023-05-21T05:21:58.502Z,20.35
2023-05-21T05:25:06.254Z,20.29
2023-05-21T05:28:10.328Z,20.22
2023-05-21T05:31:14.063Z,20.32
2023-05-21T05:34:21.357Z,20.24
2023-05-21T05:37:25.776Z,20.37
2023-05-21T05:40:29.551Z,20.24
2023-05-21T05:43:33.112Z,20.20
2023-05-21T05:46:37.591Z,20.38
2023-05-21T05:49:41.857Z,20.24
2023-05-21T05:52:45.380Z,20.31
2023-05-21T05:55:48.854Z,20.27
2023-05-21T05:58:52.324Z,20.38
2023-05-21T06:01:55.975Z,20.39
2023-05-21T06:04:59.409Z,20.46
2023-05-21T06:08:03.106Z,20.37
2023-05-21T06:11:06.860Z,20.56
2023-05-21T06:14:10.282Z,20.62
2023-05-21T06:17:14.539Z,20.59
2023-05-21T06:20:18.324Z,20.73
2023-05-21T06:23:24.363Z,20.65
2023-05-21T06:26:32.627Z,20.57
2023-05-21T06:29:36.967Z,20.66
2023-05-21T06:32:41.901Z,20.62
2023-05-21T06:35:48.233Z,20.55
2023-05-21T06:38:52.870Z,20.51
2023-05-21T06:41:58.052Z,20.48
2023-05-21T06:49:14.631Z,20.63
2023-05-21T06:52:19.504Z,20.71
2023-05-21T06:55:23.704Z,20.83
2023-05-21T06:58:51.112Z,20.89
2023-05-21T07:01:56.900Z,20.96
2023-05-21T07:08:22.597Z,20.80
2023-05-21T07:11:29.662Z,20.83
2023-05-21T07:14:33.685Z,20.94
2023-05-21T07:17:38.189Z,20.87
2023-05-21T07:20:48.445Z,20.94
2023-05-21T07:23:53.152Z,21.18
2023-05-21T07:26:57.045Z,21.17
2023-05-21T07:30:02.688Z,21.23
2023-05-21T07:33:13.694Z,21.12
2023-05-21T07:36:17.496Z,21.06
2023-05-21T07:39:21.684Z,21.21
2023-05-21T07:42:26.622Z,21.37
2023-05-21T07:45:33.695Z,21.44
2023-05-21T07:48:38.394Z,21.37
2023-05-21T07:51:42.198Z,21.41
2023-05-21T07:54:45.721Z,21.37
2023-05-21T07:57:51.522Z,21.32
2023-05-21T08:01:00.147Z,21.18
2023-05-21T08:04:07.788Z,21.23
2023-05-21T08:07:14.990Z,21.24
2023-05-21T08:10:20.822Z,21.21
2023-05-21T08:13:27.420Z,21.15
2023-05-21T08:16:31.899Z,21.21
2023-05-21T08:19:35.999Z,21.28
2023-05-21T08:22:40.420Z,21.27
2023-05-21T08:25:49.066Z,21.39
2023-05-21T08:29:04.361Z,21.42
2023-05-21T08:32:13.122Z,21.42
2023-05-21T08:35:20.538Z,21.34
2023-05-21T08:38:41.219Z,21.31
2023-05-21T08:41:56.600Z,21.30
2023-05-21T08:45:10.818Z,21.34
2023-05-21T08:48:18.292Z,21.38
2023-05-21T08:51:23.332Z,21.44
2023-05-21T08:54:29.713Z,21.45
2023-05-21T08:57:33.405Z,21.44
2023-05-21T09:00:40.820Z,21.49
2023-05-21T09:03:46.431Z,21.45
2023-05-21T09:06:52.258Z,21.46
2023-05-21T09:10:14.086Z,21.62
2023-05-21T09:13:19.747Z,21.59
2023-05-21T09:16:24.668Z,21.56
2023-05-21T09:19:29.963Z,21.55
2023-05-21T09:22:33.744Z,21.62
2023-05-21T09:25:40.099Z,21.72
2023-05-21T09:28:48.565Z,21.65
2023-05-21T09:31:52.863Z,21.58
2023-05-21T09:34:56.514Z,21.58
2023-05-21T09:37:59.958Z,21.56
2023-05-21T09:41:07.040Z,21.54
2023-05-21T09:44:12.077Z,21.58
2023-05-21T09:47:30.651Z,21.66
2023-05-21T09:50:37.551Z,21.63
2023-05-21T09:53:48.549Z,21.61
2023-05-21T09:56:55.093Z,21.55
2023-05-21T09:59:58.478Z,21.48
2023-05-21T10:03:13.183Z,21.42
2023-05-21T10:06:20.007Z,21.44
2023-05-21T10:09:24.498Z,21.51
2023-05-21T10:12:31.379Z,21.56
2023-05-21T10:15:50.858Z,21.54
2023-05-21T10:18:56.228Z,21.51
2023-05-21T10:22:02.228Z,21.51
2023-05-21T10:25:07.889Z,21.49
2023-05-21T10:28:11.696Z,21.39
2023-05-21T10:31:15.755Z,21.35
2023-05-21T10:34:20.612Z,21.39
2023-05-21T10:37:28.352Z,21.42
2023-05-21T10:40:32.556Z,21.35
2023-05-21T10:44:00.618Z,21.38
2023-05-21T10:47:45.399Z,21.32
2023-05-21T10:51:07.421Z,21.31
2023-05-21T10:54:42.998Z,21.26
2023-05-21T10:58:33.649Z,21.14
2023-05-21T11:01:40.600Z,21.06
2023-05-21T11:04:49.736Z,21.03
2023-05-21T11:07:59.105Z,20.99
2023-05-21T11:11:05.218Z,20.99
2023-05-21T11:14:40.058Z,20.91
2023-05-21T11:17:45.232Z,20.89
2023-05-21T11:20:52.698Z,20.77
2023-05-21T11:23:57.721Z,20.72
2023-05-21T11:27:03.091Z,20.66
2023-05-21T11:30:20.314Z,20.59
2023-05-21T11:33:24.217Z,20.49
2023-05-21T11:37:01.545Z,20.48
2023-05-21T11:40:24.469Z,20.38
2023-05-21T11:43:28.067Z,20.29
2023-05-21T11:46:32.619Z,20.24
2023-05-21T11:49:37.451Z,20.16
2023-05-21T11:52:42.697Z,20.04
2023-05-21T11:55:48.110Z,19.94
2023-05-21T11:58:51.496Z,19.80
2023-05-21T12:01:59.978Z,19.66
2023-05-21T12:05:03.361Z,19.58
2023-05-21T12:08:09.517Z,19.44
2023-05-21T12:11:12.980Z,19.29
2023-05-21T12:14:16.609Z,19.14
2023-05-21T12:17:25.116Z,19.07
2023-05-21T12:20:29.494Z,18.93
2023-05-21T12:23:33.218Z,18.82
2023-05-21T12:26:36.885Z,18.72
2023-05-21T12:29:42.453Z,18.59
2023-05-21T12:32:46.254Z,18.44
2023-05-21T12:35:52.330Z,18.32
2023-05-21T12:38:57.002Z,18.25
2023-05-21T12:42:00.548Z,18.14
2023-05-21T12:45:11.013Z,18.02
2023-05-21T12:48:14.543Z,17.93
2023-05-21T12:51:18.103Z,17.86
2023-05-21T12:54:22.684Z,17.82
2023-05-21T12:57:37.041Z,17.70
2023-05-21T13:00:43.765Z,17.59
2023-05-21T13:03:47.015Z,17.53
2023-05-21T13:06:50.384Z,17.42
2023-05-21T13:09:57.638Z,17.29
2023-05-21T13:13:03.569Z,17.19
2023-05-21T13:16:12.175Z,17.10
2023-05-21T13:19:16.696Z,16.99
2023-05-21T13:22:25.852Z,16.87
2023-05-21T13:25:35.874Z,16.74
2023-05-21T13:28:40.755Z,16.66
2023-05-21T13:31:47.735Z,16.52
2023-05-21T13:34:51.197Z,16.38
2023-05-21T13:37:56.003Z,16.22
2023-05-21T13:40:59.296Z,16.08
2023-05-21T13:44:02.728Z,15.91
2023-05-21T13:47:07.539Z,15.82
2023-05-21T13:50:13.713Z,15.71
2023-05-21T13:53:17.119Z,15.67
2023-05-21T13:56:21.870Z,15.63
2023-05-21T13:59:25.436Z,15.57
2023-05-21T14:02:29.011Z,15.48
2023-05-21T14:05:32.589Z,15.45
2023-05-21T14:08:36.414Z,15.42
2023-05-21T14:11:44.913Z,15.40
2023-05-21T14:14:50.523Z,15.39
2023-05-21T14:17:54.426Z,15.39
2023-05-21T14:21:00.799Z,15.34
2023-05-21T14:24:04.357Z,15.25
2023-05-21T14:27:07.759Z,15.24
2023-05-21T14:30:11.576Z,15.45
2023-05-21T14:33:15.088Z,15.52
2023-05-21T14:36:18.884Z,15.53
2023-05-21T14:39:22.270Z,15.52
2023-05-21T14:42:25.622Z,15.69
2023-05-21T14:45:29.028Z,15.79
2023-05-21T14:48:32.405Z,15.74
2023-05-21T14:51:35.860Z,15.66
2023-05-21T14:54:39.302Z,15.65
2023-05-21T14:57:43.143Z,15.63
2023-05-21T15:00:46.617Z,15.69
2023-05-21T15:03:50.273Z,15.63
2023-05-21T15:06:53.721Z,15.65
2023-05-21T15:09:57.193Z,15.83
2023-05-21T15:13:00.617Z,15.86
2023-05-21T15:16:04.087Z,15.84
2023-05-21T15:19:07.555Z,15.80
2023-05-21T15:22:11.251Z,15.82
2023-05-21T15:25:14.787Z,15.74
2023-05-21T15:28:18.157Z,15.73
2023-05-21T15:31:21.602Z,15.69
2023-05-21T15:34:25.001Z,15.70
2023-05-21T15:37:28.852Z,15.70
2023-05-21T15:40:33.395Z,15.60
2023-05-21T15:43:37.032Z,15.62
2023-05-21T15:46:40.894Z,15.55
2023-05-21T15:49:44.590Z,15.50
2023-05-21T15:52:48.532Z,15.43
2023-05-21T15:55:53.139Z,15.38
2023-05-21T15:58:59.369Z,15.35
2023-05-21T16:02:03.211Z,15.31
2023-05-21T16:05:06.962Z,15.29
2023-05-21T16:08:12.576Z,15.31
2023-05-21T16:11:16.224Z,15.05
2023-05-21T16:14:19.664Z,14.76
2023-05-21T16:17:23.195Z,14.53
2023-05-21T16:20:26.695Z,14.38
2023-05-21T16:23:30.068Z,14.25
2023-05-21T16:26:33.563Z,14.18
2023-05-21T16:29:39.298Z,14.12
2023-05-21T16:32:44.356Z,14.01
2023-05-21T16:35:47.880Z,13.88
2023-05-21T16:38:51.723Z,13.78
2023-05-21T16:42:00.301Z,13.74
2023-05-21T16:45:03.823Z,13.76
2023-05-21T16:48:07.770Z,13.76
2023-05-21T16:51:11.517Z,13.67
2023-05-21T16:54:14.957Z,13.62
2023-05-21T16:57:18.338Z,13.50
2023-05-21T17:00:21.825Z,13.46
2023-05-21T17:03:25.258Z,13.65
2023-05-21T17:06:28.730Z,13.76
2023-05-21T17:09:32.212Z,13.76
2023-05-21T17:12:35.646Z,13.77
2023-05-21T17:15:39.340Z,13.78
2023-05-21T17:18:42.925Z,13.80
2023-05-21T17:21:47.258Z,13.77
2023-05-21T17:24:50.681Z,13.77
2023-05-21T17:27:54.058Z,13.69
2023-05-21T17:30:57.575Z,13.36
2023-05-21T17:34:01.715Z,13.16
2023-05-21T17:37:05.311Z,13.15
2023-05-21T17:40:09.581Z,13.10
2023-05-21T17:43:13.049Z,13.05
2023-05-21T17:46:18.388Z,13.05
2023-05-21T17:49:21.921Z,13.19
2023-05-21T17:52:26.388Z,13.26
2023-05-21T17:55:29.897Z,13.29
2023-05-21T17:58:33.389Z,13.32
2023-05-21T18:01:38.660Z,13.30
2023-05-21T18:04:42.001Z,13.28
2023-05-21T18:07:45.464Z,13.26
2023-05-21T18:10:48.937Z,13.21
2023-05-21T18:13:53.074Z,13.15
2023-05-21T18:16:56.789Z,13.10
2023-05-21T18:20:00.458Z,13.02
2023-05-21T18:23:03.891Z,12.95
2023-05-21T18:26:07.473Z,12.90
2023-05-21T18:29:11.990Z,12.84
2023-05-21T18:32:16.065Z,12.79
2023-05-21T18:35:19.543Z,12.72
2023-05-21T18:38:23.035Z,12.68
2023-05-21T18:41:27.209Z,12.66
2023-05-21T18:44:32.682Z,12.61
2023-05-21T18:47:36.490Z,12.60
2023-05-21T18:50:40.574Z,12.56
2023-05-21T18:53:44.029Z,12.47
2023-05-21T18:56:47.526Z,12.43
2023-05-21T18:59:50.981Z,12.38
2023-05-21T19:02:54.576Z,12.30
2023-05-21T19:05:58.028Z,12.25
2023-05-21T19:09:01.452Z,12.21
2023-05-21T19:12:05.241Z,12.15
2023-05-21T19:15:09.570Z,12.11
2023-05-21T19:18:14.353Z,12.02
2023-05-21T19:21:17.828Z,12.01
2023-05-21T19:24:21.430Z,11.97
2023-05-21T19:27:24.908Z,11.94
2023-05-21T19:30:28.495Z,11.90
2023-05-21T19:33:32.109Z,11.84
2023-05-21T19:36:51.547Z,11.80
2023-05-21T19:39:57.890Z,11.74
2023-05-21T19:43:01.428Z,11.70
2023-05-21T19:46:04.931Z,11.63
2023-05-21T19:49:11.180Z,11.64
2023-05-21T19:52:14.682Z,11.60
2023-05-21T19:55:20.871Z,11.52
2023-05-21T19:58:24.530Z,11.50
2023-05-21T20:01:29.851Z,11.46
2023-05-21T20:04:34.174Z,11.39
2023-05-21T20:07:37.588Z,11.39
2023-05-21T20:10:41.219Z,11.29
2023-05-21T20:13:49.288Z,11.18
2023-05-21T20:16:54.324Z,11.11
2023-05-21T20:19:59.759Z,11.10
2023-05-21T20:23:04.013Z,11.04
2023-05-21T20:26:08.220Z,10.94
2023-05-21T20:29:12.311Z,10.90
2023-05-21T20:32:15.774Z,10.88
2023-05-21T20:35:19.131Z,10.83
2023-05-21T20:38:28.781Z,10.78
2023-05-21T20:41:45.220Z,10.73
2023-05-21T20:44:50.382Z,10.70
2023-05-21T20:47:54.151Z,10.73
2023-05-21T20:50:58.355Z,10.70
2023-05-21T20:54:01.902Z,10.68
2023-05-21T20:57:06.905Z,10.70
2023-05-21T21:00:13.704Z,10.71
2023-05-21T21:03:22.385Z,10.83
2023-05-21T21:06:26.935Z,10.81
2023-05-21T21:09:30.311Z,10.80
2023-05-21T21:12:33.761Z,10.80
2023-05-21T21:15:37.211Z,10.81
2023-05-21T21:18:40.728Z,10.85
2023-05-21T21:21:44.146Z,10.87
2023-05-21T21:24:48.537Z,10.87
2023-05-21T21:27:51.952Z,10.83
2023-05-21T21:30:55.426Z,10.75
2023-05-21T21:33:58.987Z,10.75
2023-05-21T21:37:02.484Z,10.80
2023-05-21T21:40:06.667Z,10.85
2023-05-21T21:43:10.170Z,10.97
2023-05-21T21:46:13.608Z,11.02
2023-05-21T21:49:18.048Z,11.14
2023-05-21T21:52:21.561Z,11.26
2023-05-21T21:55:25.029Z,11.42
2023-05-21T21:58:28.436Z,11.50
2023-05-21T22:01:32.077Z,11.47
2023-05-21T22:04:35.642Z,11.32
2023-05-21T22:07:39.376Z,11.29
2023-05-21T22:10:42.778Z,11.39
2023-05-21T22:13:46.280Z,12.94
2023-05-21T22:16:49.742Z,13.73
2023-05-21T22:19:53.161Z,14.67
2023-05-21T22:22:57.881Z,16.52
2023-05-21T22:26:01.677Z,17.91
2023-05-21T22:29:05.180Z,19.48
2023-05-21T22:32:08.764Z,20.84
2023-05-21T22:35:13.320Z,21.94
2023-05-21T22:38:16.936Z,22.73
2023-05-21T22:41:20.583Z,23.55
2023-05-21T22:44:24.313Z,24.44
2023-05-21T22:47:28.356Z,25.77
2023-05-21T22:50:33.628Z,26.77
2023-05-21T22:53:37.177Z,27.30
2023-05-21T22:56:40.873Z,27.64
2023-05-21T22:59:44.371Z,28.08
2023-05-21T23:02:49.487Z,27.71
2023-05-21T23:05:54.151Z,27.72
2023-05-21T23:08:57.659Z,27.89
2023-05-21T23:12:01.379Z,28.57
2023-05-21T23:15:06.216Z,29.34
2023-05-21T23:18:11.460Z,28.79
2023-05-21T23:21:15.053Z,28.56
2023-05-21T23:24:18.571Z,28.98
2023-05-21T23:27:22.055Z,28.84
2023-05-21T23:30:25.701Z,28.40
2023-05-21T23:33:29.360Z,29.01
2023-05-21T23:36:33.270Z,29.47
2023-05-21T23:39:37.527Z,29.80
2023-05-21T23:42:41.155Z,29.88
2023-05-21T23:45:45.176Z,30.74
2023-05-21T23:48:48.648Z,30.49
2023-05-21T23:51:52.250Z,30.92
2023-05-21T23:54:55.767Z,31.35
2023-05-21T23:57:59.254Z,31.19
